createdAt,value
2022-11-05T00:02:12.714Z,34.97
2022-11-05T00:04:59.347Z,39.00
2022-11-05T00:07:50.836Z,36.13
2022-11-05T00:10:30.047Z,38.88
2022-11-05T00:13:18.510Z,36.35
2022-11-05T00:16:05.015Z,29.13
2022-11-05T00:18:32.056Z,33.05
2022-11-05T00:20:59.345Z,29.33
2022-11-05T00:23:45.220Z,26.73
2022-11-05T00:26:13.508Z,24.63
2022-11-05T00:28:43.915Z,26.58
2022-11-05T00:31:14.667Z,30.15
2022-11-05T00:33:43.261Z,30.23
2022-11-05T00:36:11.446Z,34.50
2022-11-05T00:38:38.414Z,28.58
2022-11-05T00:41:05.461Z,25.10
2022-11-05T00:43:51.005Z,29.85
2022-11-05T00:46:17.905Z,24.27
2022-11-05T00:49:03.330Z,21.95
2022-11-05T00:51:30.417Z,28.73
2022-11-05T00:53:57.367Z,21.60
2022-11-05T00:56:24.166Z,19.40
2022-11-05T00:58:51.013Z,21.77
2022-11-05T01:01:17.970Z,24.23
2022-11-05T01:03:50.381Z,24.83
2022-11-05T01:06:18.296Z,21.90
2022-11-05T01:08:46.619Z,25.50
2022-11-05T01:11:33.497Z,28.65
2022-11-05T01:14:11.523Z,20.38
2022-11-05T01:16:39.934Z,21.67
2022-11-05T01:19:09.091Z,21.48
2022-11-05T01:21:36.937Z,23.92
2022-11-05T01:24:04.517Z,19.92
2022-11-05T01:26:31.896Z,20.80
2022-11-05T01:29:02.515Z,18.08
2022-11-05T01:31:29.691Z,18.10
2022-11-05T01:33:56.601Z,19.38
2022-11-05T01:36:23.588Z,22.48
2022-11-05T01:38:50.603Z,18.42
2022-11-05T01:41:17.610Z,23.92
2022-11-05T01:43:54.672Z,21.13
2022-11-05T01:46:31.909Z,23.90
2022-11-05T01:49:10.736Z,23.10
2022-11-05T01:51:38.841Z,26.05
2022-11-05T01:54:12.089Z,26.48
2022-11-05T01:56:47.318Z,31.63
2022-11-05T01:59:24.073Z,30.65
2022-11-05T02:01:51.643Z,33.17
2022-11-05T02:04:45.769Z,32.17
2022-11-05T02:07:13.416Z,27.63
2022-11-05T02:10:02.533Z,33.55
2022-11-05T02:12:30.702Z,37.92
2022-11-05T02:14:58.346Z,25.23
2022-11-05T02:17:33.414Z,31.25
2022-11-05T02:20:23.551Z,27.63
2022-11-05T02:22:50.449Z,31.30
2022-11-05T02:25:26.383Z,22.33
2022-11-05T02:27:59.273Z,20.15
2022-11-05T02:30:45.204Z,20.23
2022-11-05T02:33:23.458Z,16.10
2022-11-05T02:36:23.040Z,22.60
2022-11-05T02:39:16.465Z,16.58
2022-11-05T02:42:01.929Z,15.98
2022-11-05T02:44:56.819Z,19.55
2022-11-05T02:47:27.330Z,15.98
2022-11-05T02:50:09.589Z,17.88
2022-11-05T02:52:59.811Z,14.10
2022-11-05T02:55:38.783Z,13.60
2022-11-05T02:58:07.088Z,14.15
2022-11-05T03:00:45.841Z,13.07
2022-11-05T03:03:22.979Z,13.32
2022-11-05T03:06:09.046Z,15.77
2022-11-05T03:11:28.851Z,15.30
2022-11-05T03:14:10.264Z,12.27
2022-11-05T03:16:41.860Z,12.52
2022-11-05T03:19:44.976Z,15.65
2022-11-05T03:22:16.625Z,13.80
2022-11-05T03:24:48.884Z,12.35
2022-11-05T03:27:20.128Z,12.15
2022-11-05T03:29:52.402Z,17.67
2022-11-05T03:32:22.658Z,18.23
2022-11-05T03:34:59.011Z,13.23
2022-11-05T03:37:28.900Z,14.52
2022-11-05T03:40:00.538Z,14.02
2022-11-05T03:42:32.270Z,14.57
2022-11-05T03:45:03.030Z,13.73
2022-11-05T03:47:36.811Z,14.43
2022-11-05T03:50:15.059Z,14.65
2022-11-05T03:52:53.670Z,14.48
2022-11-05T03:55:26.389Z,13.95
2022-11-05T03:57:55.919Z,15.45
2022-11-05T04:00:23.570Z,17.08
2022-11-05T04:02:50.959Z,16.05
2022-11-05T04:05:18.103Z,21.00
2022-11-05T04:08:03.624Z,16.42
2022-11-05T04:11:06.066Z,16.27
2022-11-05T04:13:33.763Z,21.85
2022-11-05T04:16:19.184Z,22.38
2022-11-05T04:18:46.091Z,27.27
2022-11-05T04:21:31.757Z,21.73
2022-11-05T04:24:10.624Z,27.60
2022-11-05T04:26:40.940Z,24.95
2022-11-05T04:29:26.939Z,25.23
2022-11-05T04:34:22.294Z,17.27
2022-11-05T04:36:50.797Z,22.63
2022-11-05T04:39:18.936Z,23.23
2022-11-05T04:41:48.384Z,22.17
2022-11-05T04:44:16.795Z,18.42
2022-11-05T04:46:44.067Z,21.33
2022-11-05T04:49:10.964Z,15.32
2022-11-05T04:51:37.970Z,16.10
2022-11-05T04:54:04.899Z,21.58
2022-11-05T04:56:32.016Z,20.98
2022-11-05T04:58:59.027Z,15.40
2022-11-05T05:01:26.200Z,14.73
2022-11-05T05:03:54.696Z,16.98
2022-11-05T05:06:22.142Z,15.70
2022-11-05T05:08:50.555Z,16.02
2022-11-05T05:11:20.198Z,18.17
2022-11-05T05:13:48.111Z,15.30
2022-11-05T05:16:21.478Z,15.75
2022-11-05T05:18:49.072Z,13.70
2022-11-05T05:21:36.865Z,17.42
2022-11-05T05:24:12.181Z,14.50
2022-11-05T05:26:44.306Z,14.48
2022-11-05T05:29:12.058Z,14.57
2022-11-05T05:31:39.959Z,16.88
2022-11-05T05:34:08.438Z,17.35
2022-11-05T05:36:35.749Z,14.38
2022-11-05T05:39:06.407Z,15.10
2022-11-05T05:41:33.645Z,18.67
2022-11-05T05:44:00.762Z,16.35
2022-11-05T05:46:27.613Z,26.58
2022-11-05T05:48:54.559Z,19.63
2022-11-05T05:51:21.808Z,25.30
2022-11-05T05:53:48.763Z,14.43
2022-11-05T05:56:19.384Z,14.25
2022-11-05T05:58:47.319Z,16.95
2022-11-05T06:01:19.267Z,15.70
2022-11-05T06:03:48.539Z,21.98
2022-11-05T06:06:19.966Z,16.02
2022-11-05T06:08:47.921Z,15.32
2022-11-05T06:11:15.278Z,18.50
2022-11-05T06:13:42.187Z,15.07
2022-11-05T06:16:10.349Z,13.60
2022-11-05T06:18:37.493Z,14.25
2022-11-05T06:21:12.116Z,13.07
2022-11-05T06:23:41.479Z,14.77
2022-11-05T06:26:11.743Z,13.55
2022-11-05T06:28:38.871Z,15.35
2022-11-05T06:31:06.190Z,13.13
2022-11-05T06:33:33.213Z,13.68
2022-11-05T06:36:04.130Z,17.92
2022-11-05T06:38:36.164Z,13.95
2022-11-05T06:41:09.780Z,14.32
2022-11-05T06:43:38.234Z,15.40
2022-11-05T06:46:05.648Z,16.67
2022-11-05T06:48:33.207Z,14.25
2022-11-05T06:51:00.154Z,18.38
2022-11-05T06:53:27.644Z,18.90
2022-11-05T06:55:54.593Z,17.30
2022-11-05T06:58:21.747Z,24.95
2022-11-05T07:00:48.836Z,17.52
2022-11-05T07:03:16.421Z,15.48
2022-11-05T07:05:48.039Z,18.13
2022-11-05T07:08:15.324Z,16.67
2022-11-05T07:10:42.289Z,15.10
2022-11-05T07:13:09.492Z,14.43
2022-11-05T07:15:37.480Z,14.25
2022-11-05T07:18:07.566Z,14.57
2022-11-05T07:20:35.311Z,14.48
2022-11-05T07:23:08.464Z,13.30
2022-11-05T07:25:36.236Z,14.43
2022-11-05T07:28:03.987Z,14.77
2022-11-05T07:30:32.595Z,14.68
2022-11-05T07:32:59.811Z,15.02
2022-11-05T07:35:27.140Z,20.45
2022-11-05T07:37:55.283Z,12.27
2022-11-05T07:40:24.159Z,13.05
2022-11-05T07:42:56.664Z,14.60
2022-11-05T07:45:24.755Z,14.77
2022-11-05T07:47:54.138Z,21.98
2022-11-05T07:50:23.754Z,15.60
2022-11-05T07:52:51.707Z,13.95
2022-11-05T07:55:20.090Z,14.18
2022-11-05T07:57:49.314Z,14.77
2022-11-05T08:00:22.174Z,19.98
2022-11-05T08:03:08.261Z,16.77
2022-11-05T08:05:37.779Z,17.02
2022-11-05T08:08:06.458Z,19.70
2022-11-05T08:10:37.328Z,14.85
2022-11-05T08:13:10.263Z,16.25
2022-11-05T08:15:37.977Z,19.70
2022-11-05T08:18:07.420Z,18.15
2022-11-05T08:20:38.814Z,22.75
2022-11-05T08:23:06.036Z,21.42
2022-11-05T08:25:33.558Z,21.65
2022-11-05T08:28:13.051Z,18.92
2022-11-05T08:30:43.904Z,17.83
2022-11-05T08:33:13.413Z,20.88
2022-11-05T08:35:43.507Z,19.88
2022-11-05T08:38:15.679Z,16.08
2022-11-05T08:40:44.028Z,16.85
2022-11-05T08:43:13.064Z,18.52
2022-11-05T08:45:41.469Z,17.33
2022-11-05T08:48:11.331Z,18.05
2022-11-05T08:50:39.459Z,17.13
2022-11-05T08:53:08.734Z,20.55
2022-11-05T08:55:38.551Z,16.20
2022-11-05T08:58:18.299Z,19.08
2022-11-05T09:01:06.504Z,16.35
2022-11-05T09:03:34.851Z,18.77
2022-11-05T09:06:03.225Z,22.23
2022-11-05T09:08:30.242Z,21.73
2022-11-05T09:10:57.330Z,26.42
2022-11-05T09:13:25.288Z,33.58
2022-11-05T09:16:02.741Z,23.48
2022-11-05T09:18:30.976Z,25.90
2022-11-05T09:20:58.116Z,27.67
2022-11-05T09:23:25.496Z,25.17
2022-11-05T09:25:52.687Z,25.83
2022-11-05T09:28:25.712Z,28.35
2022-11-05T09:31:00.865Z,29.63
2022-11-05T09:33:28.403Z,29.20
2022-11-05T09:35:55.597Z,28.30
2022-11-05T09:38:25.825Z,27.65
2022-11-05T09:41:03.140Z,34.00
2022-11-05T09:43:42.325Z,22.55
2022-11-05T09:46:16.216Z,21.67
2022-11-05T09:48:48.820Z,23.92
2022-11-05T09:51:23.725Z,18.13
2022-11-05T09:53:54.466Z,24.63
2022-11-05T09:56:24.379Z,24.35
2022-11-05T09:59:15.291Z,17.85
2022-11-05T10:01:45.593Z,22.20
2022-11-05T10:04:23.834Z,23.52
2022-11-05T10:07:41.052Z,19.67
2022-11-05T10:10:35.245Z,26.80
2022-11-05T10:14:14.835Z,20.83
2022-11-05T10:16:56.102Z,22.35
2022-11-05T10:19:58.389Z,17.70
2022-11-05T10:22:36.807Z,19.90
2022-11-05T10:25:18.343Z,18.83
2022-11-05T10:28:08.276Z,18.70
2022-11-05T10:30:35.748Z,17.20
2022-11-05T10:33:14.768Z,16.63
2022-11-05T10:36:09.432Z,18.10
2022-11-05T10:38:43.996Z,22.23
2022-11-05T10:41:22.651Z,17.77
2022-11-05T10:43:51.675Z,18.30
2022-11-05T10:46:47.979Z,16.27
2022-11-05T10:50:09.679Z,18.40
2022-11-05T10:53:11.662Z,24.60
2022-11-05T10:55:52.145Z,21.20
2022-11-05T10:58:31.832Z,21.40
2022-11-05T11:01:15.350Z,22.77
2022-11-05T11:03:48.640Z,27.38
2022-11-05T11:06:23.625Z,17.92
2022-11-05T11:16:02.061Z,23.02
2022-11-05T11:19:26.402Z,20.20
2022-11-05T11:22:32.044Z,30.23
2022-11-05T11:25:20.222Z,19.75
2022-11-05T11:27:52.805Z,28.55
2022-11-05T11:30:21.085Z,18.88
2022-11-05T11:32:49.833Z,20.58
2022-11-05T11:35:25.421Z,19.60
2022-11-05T11:40:29.550Z,20.42
2022-11-05T11:42:59.923Z,15.10
2022-11-05T11:45:54.517Z,19.38
2022-11-05T11:48:30.309Z,20.25
2022-11-05T11:51:00.146Z,21.40
2022-11-05T11:53:35.476Z,20.27
2022-11-05T11:56:15.845Z,16.35
2022-11-05T11:58:53.281Z,18.75
2022-11-05T12:01:51.422Z,17.80
2022-11-05T12:04:23.244Z,21.20
2022-11-05T12:07:43.223Z,20.92
2022-11-05T12:10:19.377Z,17.55
2022-11-05T12:13:27.674Z,29.77
2022-11-05T12:16:03.450Z,27.73
2022-11-05T12:18:54.115Z,19.73
2022-11-05T12:21:52.634Z,19.33
2022-11-05T12:24:41.010Z,24.13
2022-11-05T12:27:19.815Z,28.73
2022-11-05T12:30:08.969Z,28.60
2022-11-05T12:32:44.946Z,23.15
2022-11-05T12:35:49.838Z,23.90
2022-11-05T12:38:31.294Z,25.40
2022-11-05T12:41:22.810Z,30.80
2022-11-05T12:44:05.054Z,26.58
2022-11-05T12:47:00.259Z,33.13
2022-11-05T12:50:01.060Z,29.50
2022-11-05T12:52:49.647Z,28.17
2022-11-05T12:55:24.412Z,24.63
2022-11-05T12:57:59.409Z,21.02
2022-11-05T13:00:28.184Z,20.08
2022-11-05T13:03:21.679Z,25.35
2022-11-05T13:06:04.550Z,21.80
2022-11-05T13:09:11.309Z,22.10
2022-11-05T13:11:45.638Z,22.33
2022-11-05T13:14:15.027Z,17.08
2022-11-05T13:16:44.575Z,15.70
2022-11-05T13:19:14.586Z,19.75
2022-11-05T13:21:44.318Z,17.27
2022-11-05T13:24:53.399Z,16.02
2022-11-05T13:27:26.346Z,18.17
2022-11-05T13:29:59.791Z,16.40
2022-11-05T13:32:35.752Z,19.70
2022-11-05T13:35:08.740Z,20.50
2022-11-05T13:37:59.239Z,16.10
2022-11-05T13:40:43.087Z,20.63
2022-11-05T13:43:51.586Z,15.93
2022-11-05T13:46:30.717Z,17.80
2022-11-05T13:49:18.901Z,15.65
2022-11-05T13:51:53.247Z,17.88
2022-11-05T13:54:49.956Z,18.90
2022-11-05T13:57:39.050Z,15.70
2022-11-05T14:00:23.275Z,17.00
2022-11-05T14:02:56.601Z,14.15
2022-11-05T14:05:40.420Z,19.63
2022-11-05T14:08:20.221Z,21.05
2022-11-05T14:11:00.593Z,16.70
2022-11-05T14:13:38.480Z,22.60
2022-11-05T14:16:16.826Z,16.25
2022-11-05T14:18:53.111Z,18.52
2022-11-05T14:21:26.299Z,16.35
2022-11-05T14:23:55.811Z,14.50
2022-11-05T14:26:31.764Z,17.88
2022-11-05T14:29:04.618Z,14.38
2022-11-05T14:32:08.332Z,14.10
2022-11-05T14:34:42.731Z,17.63
2022-11-05T14:37:12.978Z,15.70
2022-11-05T14:39:41.456Z,17.88
2022-11-05T14:42:22.292Z,17.90
2022-11-05T14:45:00.947Z,14.88
2022-11-05T14:47:33.165Z,19.20
2022-11-05T14:50:08.420Z,20.65
2022-11-05T14:52:37.592Z,15.82
2022-11-05T14:55:05.866Z,24.63
2022-11-05T14:57:44.723Z,16.23
2022-11-05T15:00:29.907Z,18.98
2022-11-05T15:03:24.154Z,16.37
2022-11-05T15:05:52.574Z,20.05
2022-11-05T15:08:35.089Z,17.10
2022-11-05T15:11:13.536Z,15.65
2022-11-05T15:13:55.714Z,16.77
2022-11-05T15:16:31.693Z,17.08
2022-11-05T15:19:00.197Z,23.98
2022-11-05T15:21:31.935Z,17.17
2022-11-05T15:23:59.457Z,19.98
2022-11-05T15:26:41.799Z,21.08
2022-11-05T15:29:22.243Z,27.45
2022-11-05T15:31:50.518Z,22.35
2022-11-05T15:34:21.865Z,23.33
2022-11-05T15:36:52.578Z,27.58
2022-11-05T15:39:42.041Z,24.52
2022-11-05T15:42:24.462Z,17.50
2022-11-05T15:44:54.067Z,26.27
2022-11-05T15:47:30.799Z,30.30
2022-11-05T15:50:02.175Z,25.70
2022-11-05T15:52:36.761Z,20.52
2022-11-05T15:55:13.301Z,21.27
2022-11-05T15:57:59.608Z,24.02
2022-11-05T16:00:30.514Z,23.98
2022-11-05T16:03:16.284Z,24.85
2022-11-05T16:05:48.829Z,30.80
2022-11-05T16:08:24.209Z,17.38
2022-11-05T16:10:54.475Z,23.92
2022-11-05T16:13:23.320Z,18.13
2022-11-05T16:16:03.689Z,28.23
2022-11-05T16:18:34.743Z,21.80
2022-11-05T16:21:05.035Z,26.27
2022-11-05T16:23:45.654Z,34.60
2022-11-05T16:27:00.461Z,27.65
2022-11-05T16:29:40.325Z,27.58
2022-11-05T16:32:16.667Z,31.75
2022-11-05T16:34:48.968Z,22.75
2022-11-05T16:37:21.645Z,31.48
2022-11-05T16:39:48.799Z,30.00
2022-11-05T16:42:24.957Z,38.10
2022-11-05T16:44:53.970Z,36.88
2022-11-05T16:47:22.121Z,47.22
2022-11-05T16:49:49.780Z,36.33
2022-11-05T16:52:17.054Z,39.30
2022-11-05T16:54:44.394Z,44.85
2022-11-05T16:57:33.389Z,40.42
2022-11-05T17:00:01.271Z,33.83
2022-11-05T17:02:29.317Z,40.28
2022-11-05T17:04:56.680Z,39.22
2022-11-05T17:07:27.049Z,55.38
2022-11-05T17:09:54.169Z,42.78
2022-11-05T17:12:21.382Z,41.10
2022-11-05T17:14:48.779Z,43.60
2022-11-05T17:17:22.601Z,36.42
2022-11-05T17:19:51.514Z,40.13
2022-11-05T17:22:19.525Z,33.42
2022-11-05T17:24:47.147Z,35.15
2022-11-05T17:27:14.576Z,40.95
2022-11-05T17:29:42.158Z,35.85
2022-11-05T17:32:09.374Z,40.33
2022-11-05T17:34:36.715Z,38.58
2022-11-05T17:37:03.814Z,31.75
2022-11-05T17:39:31.947Z,37.45
2022-11-05T17:42:01.531Z,28.60
2022-11-05T17:44:28.699Z,32.53
2022-11-05T17:46:55.973Z,33.92
2022-11-05T17:49:23.105Z,37.13
2022-11-05T17:51:50.513Z,24.58
2022-11-05T17:54:17.623Z,33.55
2022-11-05T17:56:44.998Z,28.70
2022-11-05T17:59:13.361Z,35.85
2022-11-05T18:01:46.928Z,34.08
2022-11-05T18:04:17.127Z,29.90
2022-11-05T18:06:47.371Z,34.75
2022-11-05T18:09:15.746Z,25.40
2022-11-05T18:11:48.734Z,34.67
2022-11-05T18:14:23.692Z,41.85
2022-11-05T18:16:55.646Z,26.80
2022-11-05T18:19:22.975Z,28.05
2022-11-05T18:21:51.203Z,30.73
2022-11-05T18:24:19.740Z,47.55
2022-11-05T18:26:47.402Z,24.80
2022-11-05T18:29:24.930Z,31.58
2022-11-05T18:32:07.772Z,27.85
2022-11-05T18:34:36.306Z,41.35
2022-11-05T18:37:03.966Z,32.25
2022-11-05T18:39:38.859Z,30.45
2022-11-05T18:42:10.342Z,23.27
2022-11-05T18:46:56.452Z,30.65
2022-11-05T18:48:04.518Z,41.47
2022-11-05T18:50:35.520Z,34.70
2022-11-05T18:53:05.583Z,36.67
2022-11-05T18:55:46.706Z,30.20
2022-11-05T18:58:24.472Z,26.05
2022-11-05T19:00:52.443Z,27.65
2022-11-05T19:03:34.917Z,26.83
2022-11-05T19:06:07.408Z,29.35
2022-11-05T19:08:46.890Z,26.15
2022-11-05T19:11:23.954Z,28.70
2022-11-05T19:13:58.862Z,25.77
2022-11-05T19:16:32.135Z,27.92
2022-11-05T19:19:21.259Z,30.55
2022-11-05T19:21:51.094Z,23.50
2022-11-05T19:24:24.221Z,37.10
2022-11-05T19:26:56.017Z,33.95
2022-11-05T19:29:23.642Z,27.63
2022-11-05T19:31:54.083Z,29.08
2022-11-05T19:34:23.783Z,24.92
2022-11-05T19:36:54.136Z,23.23
2022-11-05T19:40:02.445Z,27.25
2022-11-05T19:43:02.895Z,35.47
2022-11-05T19:45:44.462Z,26.90
2022-11-05T19:48:26.363Z,27.50
2022-11-05T19:50:55.906Z,30.80
2022-11-05T19:53:26.598Z,27.80
2022-11-05T19:55:53.750Z,33.13
2022-11-05T19:58:23.054Z,22.60
2022-11-05T20:00:59.332Z,31.85
2022-11-05T20:03:29.233Z,36.45
2022-11-05T20:06:06.007Z,26.58
2022-11-05T20:08:43.247Z,32.15
2022-11-05T20:11:20.711Z,36.47
2022-11-05T20:13:50.935Z,32.83
2022-11-05T20:16:25.856Z,39.13
2022-11-05T20:18:53.468Z,36.20
2022-11-05T20:21:20.762Z,29.27
2022-11-05T20:23:58.057Z,28.00
2022-11-05T20:26:26.816Z,34.17
2022-11-05T20:29:22.211Z,35.97
2022-11-05T20:32:02.236Z,37.47
2022-11-05T20:34:42.659Z,28.50
2022-11-05T20:37:51.102Z,30.52
2022-11-05T20:40:22.642Z,36.00
2022-11-05T20:42:49.638Z,35.80
2022-11-05T20:45:20.107Z,30.42
2022-11-05T20:47:47.427Z,30.58
2022-11-05T20:50:14.509Z,24.80
2022-11-05T20:52:41.656Z,39.17
2022-11-05T20:55:17.397Z,43.53
2022-11-05T20:57:45.821Z,30.90
2022-11-05T21:00:15.868Z,35.72
2022-11-05T21:02:43.390Z,41.35
2022-11-05T21:05:13.160Z,37.88
2022-11-05T21:07:44.592Z,36.03
2022-11-05T21:10:12.576Z,38.15
2022-11-05T21:12:42.174Z,35.45
2022-11-05T21:15:11.692Z,38.72
2022-11-05T21:17:47.835Z,37.33
2022-11-05T21:20:16.506Z,38.92
2022-11-05T21:22:45.596Z,34.53
2022-11-05T21:25:12.797Z,37.20
2022-11-05T21:27:43.708Z,43.92
2022-11-05T21:30:16.714Z,31.60
2022-11-05T21:32:44.346Z,34.67
2022-11-05T21:35:22.556Z,34.90
2022-11-05T21:37:57.016Z,38.17
2022-11-05T21:40:24.312Z,38.40
2022-11-05T21:42:51.406Z,33.92
2022-11-05T21:45:20.332Z,47.83
2022-11-05T21:47:50.674Z,42.70
2022-11-05T21:50:21.799Z,43.92
2022-11-05T21:53:07.730Z,38.80
2022-11-05T21:55:56.216Z,39.65
2022-11-05T21:58:42.209Z,40.40
2022-11-05T22:06:39.647Z,41.00
2022-11-05T22:09:07.031Z,41.55
2022-11-05T22:11:37.369Z,42.67
2022-11-05T22:14:05.069Z,39.08
2022-11-05T22:16:32.209Z,46.08
2022-11-05T22:18:59.957Z,40.00
2022-11-05T22:21:27.125Z,36.88
2022-11-05T22:23:54.351Z,39.55
2022-11-05T22:26:32.490Z,42.88
2022-11-05T22:29:08.873Z,42.55
2022-11-05T22:31:43.890Z,51.33
2022-11-05T22:34:12.046Z,46.67
2022-11-05T22:36:39.445Z,39.20
2022-11-05T22:39:06.810Z,29.80
2022-11-05T22:41:34.008Z,37.45
2022-11-05T22:44:04.095Z,50.65
2022-11-05T22:46:31.658Z,43.45
2022-11-05T22:48:59.892Z,37.92
2022-11-05T22:51:29.625Z,38.38
2022-11-05T22:53:57.009Z,31.80
2022-11-05T22:56:26.267Z,32.63
2022-11-05T22:58:53.518Z,40.88
2022-11-05T23:01:23.865Z,35.50
2022-11-05T23:03:53.271Z,40.95
2022-11-05T23:06:41.404Z,35.17
2022-11-05T23:09:34.871Z,39.33
2022-11-05T23:12:03.206Z,35.28
2022-11-05T23:14:30.404Z,32.55
2022-11-05T23:17:16.258Z,33.40
2022-11-05T23:20:01.573Z,35.50
2022-11-05T23:22:49.051Z,34.95
2022-11-05T23:25:19.232Z,30.77
2022-11-05T23:27:48.879Z,36.53
2022-11-05T23:30:24.030Z,35.58
2022-11-05T23:32:52.921Z,39.28
2022-11-05T23:35:42.303Z,36.08
2022-11-05T23:38:28.039Z,36.33
2022-11-05T23:41:13.706Z,38.40
2022-11-05T23:43:58.951Z,32.47
2022-11-05T23:46:46.654Z,30.27
2022-11-05T23:49:13.422Z,35.60
2022-11-05T23:51:42.519Z,28.65
2022-11-05T23:54:11.740Z,37.13
2022-11-05T23:56:41.398Z,34.70
2022-11-05T23:59:09.496Z,30.05
